メインページ
METAR-TAF:

METAR-TAF

空港 :

ラハイナ, ハワイ州, アメリカ合衆国

緯度: 21-01N, 経度: 156-38W, 海抜: 40m

現時点の気象観測

当レポートは58分前の23:50(UTC)に作成
北/北東の風 7kt
気温 30°C
湿度 66%
気圧 1012 hPa
視程: 24.1km
高度2000ftの雲はほとんどない
高度3500ftの雲は散在している
高度5000ftの雲は散在している

METAR: PHJH 202350Z COR 03007KT 15SM FEW020 SCT035 SCT050 30/23 A2989

時間: 14:48 (00:48 UTC)

予報

当レポートは1時間7分前の23:41(UTC)に作成
予報は21日の 00時(UTC)から 21日の 24時(UTC)まで有効
西/北西の風 9kt
視程: 10km
高度2500ftの雲は散在している
21日の 0400時(UTC)から
の風 5kt
視程: 10km
高度2500ftの雲はほとんどない

TAF: PHJH 202341Z 2100/2124 29009KT P6SM SCT025 FM210400 09005KT P6SM FEW025 AMD NOT SKED AFT 210400

4,000以上の空港の気象観測と天気予報(METAR報とTAF報)

利用可能な観測所は地図上に黄色い丸と赤い丸で示す。

丸の上にカーソルを重ねると観測所名を参照できる。

次にクリックすると気象観測と天気予報を参照できる。

マップの切り替え:黒色「×」印の緑ボタンをクリックして拡大、「-」印の緑ボタンをクリックして縮小、緑色の三角印をクリックして隣りの地図に切り替え


METAR-TAF: